Time;durP1;ratioP1;P1;durP2;ratioP2;P2;SDS_P1;SDS_P2;PMS_P1;PMS_P2;Temp;Humidity;BMP_temperature;BMP_pressure;BME280_temperature;BME280_humidity;BME280_pressure;Samples;Min_cycle;Max_cycle;Signal;HPM_P1;HPM_P2
2021/05/02 00:01:57;;;;;;;2.80;1.00;;;11.60;47.20;;;;;;5010784;28;20026;-74
2021/05/02 00:04:23;;;;;;;6.35;1.08;;;11.60;47.20;;;;;;5010107;28;20029;-74
2021/05/02 00:06:49;;;;;;;3.60;0.50;;;11.60;47.40;;;;;;5012397;28;20022;-74
2021/05/02 00:09:15;;;;;;;2.65;1.00;;;11.50;47.40;;;;;;4995292;28;20038;-74
2021/05/02 00:11:41;;;;;;;3.38;1.00;;;11.50;47.50;;;;;;5010502;28;20026;-74
2021/05/02 00:14:07;;;;;;;5.00;1.35;;;11.50;47.60;;;;;;5040318;28;20038;-74
2021/05/02 00:16:33;;;;;;;2.22;0.80;;;11.40;47.60;;;;;;5011679;28;20037;-74
2021/05/02 00:18:59;;;;;;;2.05;1.02;;;11.50;47.70;;;;;;4993456;28;20471;-74
2021/05/02 00:21:25;;;;;;;2.42;0.52;;;11.50;47.70;;;;;;5011371;28;20082;-74
2021/05/02 00:23:51;;;;;;;2.83;0.73;;;11.50;47.70;;;;;;5012979;28;20029;-74
2021/05/02 00:26:18;;;;;;;2.17;0.75;;;11.40;47.70;;;;;;5026956;28;20037;-74
2021/05/02 00:28:46;;;;;;;2.22;0.85;;;11.40;47.70;;;;;;5031326;28;20030;-74
2021/05/02 00:31:12;;;;;;;2.28;0.88;;;11.40;47.80;;;;;;5001958;28;20406;-74
2021/05/02 00:33:38;;;;;;;1.15;0.70;;;11.40;47.80;;;;;;4992522;28;20046;-74
2021/05/02 00:36:04;;;;;;;0.70;0.20;;;11.40;47.90;;;;;;5010954;28;20029;-74
2021/05/02 00:38:34;;;;;;;2.33;0.93;;;11.30;47.90;;;;;;5007735;28;20491;-74
2021/05/02 00:41:00;;;;;;;2.58;0.80;;;11.30;48.00;;;;;;5010383;28;20475;-74
2021/05/02 00:43:39;;;;;;;1.95;0.63;;;11.30;48.10;;;;;;4990762;28;20050;-74
2021/05/02 00:46:13;;;;;;;1.95;0.90;;;11.20;48.10;;;;;;5030581;28;20049;-74
2021/05/02 00:48:58;;;;;;;0.98;0.65;;;11.20;48.10;;;;;;4995724;28;20041;-74
2021/05/02 00:51:24;;;;;;;0.47;0.30;;;11.20;48.20;;;;;;5002747;28;20036;-74
2021/05/02 00:53:53;;;;;;;0.50;0.30;;;11.10;48.30;;;;;;5011380;28;20431;-74
2021/05/02 00:56:24;;;;;;;0.85;0.20;;;11.10;48.40;;;;;;5013287;28;20030;-74
2021/05/02 00:58:57;;;;;;;0.80;0.35;;;11.10;48.50;;;;;;5010359;28;20022;-74
2021/05/02 01:01:23;;;;;;;1.42;0.60;;;11.10;48.50;;;;;;5009813;28;20026;-74
2021/05/02 01:03:50;;;;;;;2.15;0.55;;;11.00;48.50;;;;;;5011137;28;20028;-74
2021/05/02 01:06:20;;;;;;;0.93;0.57;;;11.00;48.60;;;;;;5010430;28;20045;-75
2021/05/02 01:08:48;;;;;;;1.88;0.50;;;11.00;48.60;;;;;;5011433;28;20056;-74
2021/05/02 01:11:14;;;;;;;1.80;0.88;;;11.00;48.60;;;;;;5023284;28;20026;-75
2021/05/02 01:13:50;;;;;;;3.45;0.65;;;11.00;48.60;;;;;;5010227;28;20037;-74
2021/05/02 01:16:16;;;;;;;4.70;0.90;;;11.00;48.80;;;;;;5009064;28;20041;-74
2021/05/02 01:18:43;;;;;;;2.15;1.25;;;10.90;49.40;;;;;;5009649;28;20056;-74
2021/05/02 01:21:11;;;;;;;1.75;0.95;;;10.90;48.90;;;;;;5009709;28;20402;-74
2021/05/02 01:23:37;;;;;;;2.10;1.38;;;10.80;48.90;;;;;;5007374;28;20048;-74
2021/05/02 01:26:03;;;;;;;1.27;0.35;;;10.80;49.10;;;;;;5008625;28;20029;-74
2021/05/02 01:28:29;;;;;;;2.15;0.60;;;10.80;49.10;;;;;;5010831;28;20037;-74
2021/05/02 01:30:55;;;;;;;1.42;0.82;;;10.80;49.20;;;;;;4991314;28;20030;-74
2021/05/02 01:33:21;;;;;;;4.35;1.50;;;10.80;49.30;;;;;;5009973;28;20030;-74
2021/05/02 01:35:47;;;;;;;1.65;0.63;;;10.70;49.30;;;;;;5011027;28;20395;-74
2021/05/02 01:38:13;;;;;;;1.10;0.50;;;10.70;49.40;;;;;;5034892;28;20041;-74
2021/05/02 01:40:40;;;;;;;1.98;1.10;;;10.70;49.40;;;;;;5011192;28;20021;-74
2021/05/02 01:43:06;;;;;;;2.60;1.05;;;10.70;49.50;;;;;;5010176;28;20022;-75
2021/05/02 01:45:32;;;;;;;2.80;0.75;;;10.70;49.60;;;;;;5009051;28;20038;-74
2021/05/02 01:48:06;;;;;;;1.83;1.08;;;10.80;49.70;;;;;;5009510;28;20387;-74
2021/05/02 01:50:42;;;;;;;2.47;0.63;;;10.70;49.60;;;;;;5021209;28;20037;-74
2021/05/02 01:53:08;;;;;;;0.68;0.45;;;10.70;49.70;;;;;;5007883;28;20049;-74
2021/05/02 01:55:34;;;;;;;2.05;1.00;;;10.70;49.70;;;;;;5009622;28;20036;-75
2021/05/02 01:58:00;;;;;;;2.67;0.77;;;10.70;49.80;;;;;;5010401;28;20056;-74
2021/05/02 02:00:41;;;;;;;2.63;1.08;;;10.70;49.90;;;;;;5008602;28;20491;-74
2021/05/02 02:03:08;;;;;;;2.08;1.10;;;10.60;50.00;;;;;;5009296;28;20022;-74
2021/05/02 02:05:34;;;;;;;0.85;0.28;;;10.60;50.00;;;;;;5034496;28;20029;-75
2021/05/02 02:08:01;;;;;;;1.92;1.13;;;10.60;50.10;;;;;;5003637;28;20038;-74
2021/05/02 02:10:27;;;;;;;1.52;0.90;;;10.50;50.10;;;;;;4992202;28;20065;-74
2021/05/02 02:12:53;;;;;;;1.10;0.60;;;10.50;50.20;;;;;;5009330;28;20044;-74
2021/05/02 02:15:20;;;;;;;1.88;0.60;;;10.50;50.40;;;;;;5023808;28;20487;-74
2021/05/02 02:17:46;;;;;;;1.85;0.70;;;10.40;50.30;;;;;;5028300;28;20057;-74
2021/05/02 02:20:12;;;;;;;4.32;0.90;;;10.40;50.50;;;;;;5041446;28;20030;-74
2021/05/02 02:22:40;;;;;;;2.15;0.90;;;10.40;50.60;;;;;;5001788;28;20491;-75
2021/05/02 02:25:07;;;;;;;1.35;0.65;;;10.30;50.60;;;;;;5016427;28;20046;-74
2021/05/02 02:27:33;;;;;;;2.45;1.13;;;10.30;50.70;;;;;;4997158;28;20026;-75
2021/05/02 02:30:18;;;;;;;2.60;1.20;;;10.30;50.80;;;;;;5010137;28;20037;-74
2021/05/02 02:32:46;;;;;;;4.32;0.80;;;10.20;50.80;;;;;;5005361;28;20514;-74
2021/05/02 02:35:14;;;;;;;1.70;0.82;;;10.20;50.80;;;;;;5024189;28;20479;-75
2021/05/02 02:37:46;;;;;;;1.20;0.65;;;10.20;51.00;;;;;;5010468;28;20499;-74
2021/05/02 02:40:15;;;;;;;2.42;1.17;;;10.10;51.00;;;;;;5003398;28;20030;-74
2021/05/02 02:42:44;;;;;;;0.90;0.75;;;10.10;51.00;;;;;;5037833;28;20026;-74
2021/05/02 02:45:10;;;;;;;1.95;1.02;;;10.10;51.00;;;;;;5033049;28;20450;-74
2021/05/02 02:47:57;;;;;;;2.72;1.08;;;10.10;51.00;;;;;;5012203;28;20056;-73
2021/05/02 02:50:23;;;;;;;0.98;0.40;;;10.10;51.10;;;;;;5009114;28;20037;-74
2021/05/02 02:52:54;;;;;;;4.30;1.27;;;10.00;51.10;;;;;;5008705;28;20042;-74
2021/05/02 02:55:21;;;;;;;1.42;0.75;;;10.00;51.20;;;;;;5008045;28;20042;-74
2021/05/02 02:58:01;;;;;;;1.38;0.50;;;10.00;51.20;;;;;;5009792;28;20101;-74
2021/05/02 03:00:34;;;;;;;2.67;0.55;;;10.00;51.40;;;;;;5009397;28;20041;-74
2021/05/02 03:03:13;;;;;;;1.38;0.60;;;9.90;51.40;;;;;;4992912;28;20037;-74
2021/05/02 03:05:39;;;;;;;1.17;0.75;;;9.90;51.40;;;;;;5007899;28;20398;-74
2021/05/02 03:08:07;;;;;;;1.05;0.40;;;9.90;51.50;;;;;;5008226;28;20384;-74
2021/05/02 03:10:33;;;;;;;2.15;0.88;;;9.90;51.60;;;;;;4990843;28;20038;-75
2021/05/02 03:12:59;;;;;;;3.10;1.08;;;9.80;51.60;;;;;;5008768;28;20026;-76
2021/05/02 03:15:26;;;;;;;2.92;1.15;;;9.80;51.70;;;;;;5006817;28;20454;-76
2021/05/02 03:18:06;;;;;;;1.30;0.60;;;9.80;51.70;;;;;;5010522;28;20530;-75
2021/05/02 03:20:34;;;;;;;0.90;0.52;;;9.80;51.80;;;;;;5009158;28;20514;-76
2021/05/02 03:23:30;;;;;;;1.23;0.50;;;9.70;51.80;;;;;;5008469;28;20026;-76
2021/05/02 03:26:00;;;;;;;1.42;0.47;;;9.70;51.90;;;;;;5010927;28;20060;-77
2021/05/02 03:28:33;;;;;;;1.00;0.68;;;9.70;51.80;;;;;;5012519;28;20026;-75
2021/05/02 03:31:00;;;;;;;3.17;1.20;;;9.70;51.90;;;;;;5009870;28;20049;-76
2021/05/02 03:33:27;;;;;;;2.50;0.68;;;9.70;52.00;;;;;;5010483;28;20042;-75
2021/05/02 03:35:53;;;;;;;1.60;0.60;;;9.60;51.90;;;;;;4979811;28;20041;-75
2021/05/02 03:38:22;;;;;;;2.30;0.82;;;9.60;52.00;;;;;;5012519;28;20038;-76
2021/05/02 03:40:52;;;;;;;2.17;0.70;;;9.60;52.10;;;;;;5010035;28;20410;-75
2021/05/02 03:43:18;;;;;;;1.38;0.65;;;9.60;52.10;;;;;;5011714;28;20030;-76
2021/05/02 03:45:44;;;;;;;2.55;1.17;;;9.70;52.10;;;;;;5009112;28;20038;-76
2021/05/02 03:48:10;;;;;;;2.13;0.95;;;9.60;52.20;;;;;;4994517;28;20034;-76
2021/05/02 03:50:36;;;;;;;1.98;0.73;;;9.60;52.20;;;;;;5031441;28;20043;-75
2021/05/02 03:53:03;;;;;;;1.27;0.85;;;9.60;52.20;;;;;;5010367;28;20046;-76
2021/05/02 03:55:39;;;;;;;0.88;0.63;;;9.70;52.30;;;;;;4995528;28;20049;-76
2021/05/02 03:58:09;;;;;;;0.82;0.52;;;9.60;52.30;;;;;;5011391;28;20026;-76
2021/05/02 04:00:35;;;;;;;4.18;1.65;;;9.70;52.40;;;;;;5011429;28;20034;-76
2021/05/02 04:03:01;;;;;;;1.70;1.08;;;9.70;52.40;;;;;;5011222;28;20311;-75
2021/05/02 04:05:27;;;;;;;0.65;0.38;;;9.70;52.40;;;;;;5013164;28;20041;-76
2021/05/02 04:07:54;;;;;;;2.22;0.90;;;9.70;52.40;;;;;;5012378;28;20044;-76
2021/05/02 04:10:20;;;;;;;1.38;0.80;;;9.70;52.40;;;;;;5011809;28;20029;-75
2021/05/02 04:12:46;;;;;;;3.95;0.45;;;9.70;52.50;;;;;;5011645;28;20040;-76
2021/05/02 04:15:12;;;;;;;1.58;0.93;;;9.70;52.50;;;;;;5010965;28;20037;-76
2021/05/02 04:17:39;;;;;;;1.17;0.80;;;9.80;52.70;;;;;;5013986;28;20375;-76
2021/05/02 04:20:05;;;;;;;2.13;0.95;;;9.80;52.60;;;;;;5012189;28;20033;-76
2021/05/02 04:22:31;;;;;;;2.72;0.88;;;9.70;52.60;;;;;;5008570;28;20064;-76
2021/05/02 04:24:57;;;;;;;2.40;0.63;;;9.70;52.70;;;;;;5010378;28;20025;-76
2021/05/02 04:27:24;;;;;;;2.45;0.80;;;9.70;52.80;;;;;;5007389;28;20021;-77
2021/05/02 04:29:50;;;;;;;3.15;1.95;;;9.70;52.90;;;;;;5006864;28;20026;-78
2021/05/02 04:32:16;;;;;;;1.83;1.20;;;9.70;53.00;;;;;;5030942;28;20038;-77
2021/05/02 04:34:42;;;;;;;0.85;0.60;;;9.70;53.00;;;;;;5008317;28;20038;-79
2021/05/02 04:37:08;;;;;;;3.75;0.75;;;9.70;53.10;;;;;;5008893;28;20026;-78
2021/05/02 04:39:34;;;;;;;2.38;1.02;;;9.70;53.10;;;;;;5010693;28;20034;-76
2021/05/02 04:42:00;;;;;;;2.53;1.33;;;9.70;53.10;;;;;;5011765;28;20041;-77
2021/05/02 04:44:26;;;;;;;1.48;0.60;;;9.80;53.20;;;;;;5012420;28;20033;-76
2021/05/02 04:46:52;;;;;;;2.13;1.10;;;9.70;53.20;;;;;;5010481;28;20479;-78
2021/05/02 04:49:20;;;;;;;0.57;0.20;;;9.70;53.20;;;;;;5009676;28;20521;-76
2021/05/02 04:51:46;;;;;;;1.30;0.47;;;9.80;53.30;;;;;;5009296;28;20118;-77
2021/05/02 04:54:12;;;;;;;3.38;0.88;;;9.80;53.30;;;;;;5010393;28;20050;-77
2021/05/02 04:56:39;;;;;;;2.60;1.05;;;9.80;53.40;;;;;;5012138;28;20034;-77
2021/05/02 04:59:06;;;;;;;2.25;0.82;;;9.80;53.50;;;;;;5010669;28;20137;-77
2021/05/02 05:01:32;;;;;;;1.77;0.57;;;9.70;53.50;;;;;;5009600;28;20101;-77
2021/05/02 05:03:58;;;;;;;4.15;1.50;;;9.70;53.60;;;;;;5010452;28;20026;-76
2021/05/02 05:06:24;;;;;;;4.28;0.80;;;9.70;53.60;;;;;;5010035;28;20034;-76
2021/05/02 05:08:51;;;;;;;2.35;0.38;;;9.80;53.60;;;;;;5010736;28;20037;-77
2021/05/02 05:11:18;;;;;;;2.65;1.17;;;9.80;53.60;;;;;;5010996;28;20046;-76
2021/05/02 05:13:45;;;;;;;4.82;1.42;;;9.80;53.50;;;;;;5008895;28;20053;-77
2021/05/02 05:16:11;;;;;;;0.88;0.50;;;9.90;53.60;;;;;;5011003;28;20033;-76
2021/05/02 05:18:37;;;;;;;2.53;1.35;;;9.90;53.60;;;;;;4992117;28;20041;-76
2021/05/02 05:21:03;;;;;;;1.70;0.98;;;10.00;53.50;;;;;;5010411;28;20061;-76
2021/05/02 05:23:29;;;;;;;2.55;1.13;;;10.10;53.40;;;;;;5012565;28;20033;-76
2021/05/02 05:25:55;;;;;;;0.95;0.77;;;10.20;53.40;;;;;;5037416;28;20059;-76
2021/05/02 05:28:24;;;;;;;3.83;1.20;;;10.30;53.40;;;;;;5010267;28;20036;-77
2021/05/02 05:30:51;;;;;;;2.70;1.23;;;10.30;53.40;;;;;;5007608;28;20060;-77
2021/05/02 05:33:17;;;;;;;0.60;0.17;;;10.40;53.40;;;;;;5011320;28;20038;-76
2021/05/02 05:35:43;;;;;;;1.85;1.13;;;10.50;53.40;;;;;;4977091;28;20050;-77
2021/05/02 05:38:09;;;;;;;2.85;1.08;;;10.60;53.30;;;;;;5013286;28;20489;-76
2021/05/02 05:40:36;;;;;;;2.22;0.82;;;10.70;53.20;;;;;;5010805;28;20034;-76
2021/05/02 05:43:04;;;;;;;2.28;0.63;;;11.00;53.10;;;;;;5007967;28;20030;-76
2021/05/02 05:45:31;;;;;;;1.73;0.73;;;11.20;52.80;;;;;;4994397;28;20041;-77
2021/05/02 05:47:57;;;;;;;2.45;0.82;;;11.40;52.60;;;;;;4986684;28;20042;-76
2021/05/02 05:50:24;;;;;;;2.13;1.05;;;11.60;52.40;;;;;;5021425;28;20030;-76
2021/05/02 05:52:50;;;;;;;0.73;0.35;;;11.70;52.20;;;;;;5012504;28;20510;-76
2021/05/02 05:55:16;;;;;;;2.15;0.85;;;11.80;52.20;;;;;;5007954;28;20056;-77
2021/05/02 05:57:49;;;;;;;1.45;0.82;;;11.90;52.10;;;;;;5008913;28;20022;-78
2021/05/02 06:00:17;;;;;;;2.25;0.60;;;11.90;52.10;;;;;;5034783;28;20034;-77
2021/05/02 06:02:43;;;;;;;3.03;0.70;;;11.80;52.10;;;;;;5010766;28;20026;-77
2021/05/02 06:05:09;;;;;;;3.92;1.63;;;11.90;52.10;;;;;;5009965;28;20025;-77
2021/05/02 06:07:35;;;;;;;1.33;0.60;;;11.90;52.10;;;;;;5009444;28;20056;-77
2021/05/02 06:10:04;;;;;;;4.07;0.75;;;12.00;51.90;;;;;;5009044;28;20057;-77
2021/05/02 06:12:30;;;;;;;0.85;0.38;;;12.10;51.90;;;;;;4992587;28;20034;-77
2021/05/02 06:14:56;;;;;;;2.53;1.35;;;12.20;51.80;;;;;;4982973;28;20419;-77
2021/05/02 06:17:23;;;;;;;2.22;1.27;;;12.20;51.80;;;;;;5027592;28;20042;-77
2021/05/02 06:19:49;;;;;;;2.05;0.90;;;12.10;51.90;;;;;;5007788;28;20025;-77
2021/05/02 06:22:15;;;;;;;1.52;0.47;;;12.00;52.00;;;;;;5008549;28;20029;-78
2021/05/02 06:24:41;;;;;;;3.50;1.08;;;12.00;52.10;;;;;;5017009;28;20058;-76
2021/05/02 06:27:07;;;;;;;1.63;0.88;;;12.00;52.10;;;;;;5008292;28;20034;-77
2021/05/02 06:29:33;;;;;;;1.83;1.13;;;12.00;52.30;;;;;;5009659;28;20407;-78
2021/05/02 06:31:59;;;;;;;4.80;1.65;;;11.90;52.50;;;;;;4987477;28;20042;-77
2021/05/02 06:34:25;;;;;;;1.23;0.50;;;11.70;52.60;;;;;;5006644;28;20041;-77
2021/05/02 06:36:57;;;;;;;1.55;0.95;;;11.60;52.80;;;;;;5005884;28;20061;-79
2021/05/02 06:39:24;;;;;;;2.40;1.15;;;11.50;53.00;;;;;;5010000;28;20021;-80
2021/05/02 06:41:50;;;;;;;3.70;1.17;;;11.40;53.30;;;;;;5026019;28;20030;-79
2021/05/02 06:44:16;;;;;;;3.15;0.90;;;11.20;53.50;;;;;;5007376;28;20419;-79
2021/05/02 06:46:42;;;;;;;2.05;1.05;;;11.10;53.60;;;;;;5004090;28;20037;-79
2021/05/02 06:49:08;;;;;;;4.78;1.15;;;11.10;53.70;;;;;;5007763;28;20033;-79
2021/05/02 06:51:35;;;;;;;1.70;1.00;;;11.10;53.70;;;;;;5037452;28;20034;-79
2021/05/02 06:54:01;;;;;;;1.38;0.70;;;11.10;53.70;;;;;;5026998;28;20049;-80
2021/05/02 06:56:27;;;;;;;2.50;0.93;;;11.10;54.40;;;;;;4981639;28;20049;-80
2021/05/02 06:58:54;;;;;;;0.95;0.60;;;11.10;53.90;;;;;;5005780;28;20360;-80
2021/05/02 07:01:22;;;;;;;2.60;0.93;;;11.00;53.90;;;;;;5009569;28;20030;-81
2021/05/02 07:03:48;;;;;;;4.07;0.75;;;10.90;54.00;;;;;;5006645;28;20475;-82
2021/05/02 07:06:14;;;;;;;2.97;1.27;;;10.90;54.20;;;;;;5013531;28;20041;-78
2021/05/02 07:08:40;;;;;;;3.08;1.30;;;10.90;54.30;;;;;;5043844;28;20386;-79
2021/05/02 07:11:06;;;;;;;1.42;0.73;;;10.90;54.20;;;;;;5026156;28;20033;-80
2021/05/02 07:13:33;;;;;;;2.22;1.15;;;10.90;54.20;;;;;;5008972;28;20030;-78
2021/05/02 07:16:02;;;;;;;2.63;0.98;;;10.80;54.20;;;;;;5002700;28;20423;-78
2021/05/02 07:18:36;;;;;;;2.10;0.65;;;10.80;54.20;;;;;;5031316;28;20057;-77
2021/05/02 07:21:02;;;;;;;1.23;0.40;;;10.80;54.30;;;;;;5028376;28;20498;-79
2021/05/02 07:23:28;;;;;;;1.98;0.98;;;10.80;54.20;;;;;;5032778;28;20034;-78
2021/05/02 07:25:55;;;;;;;10.18;2.03;;;10.90;54.30;;;;;;5025221;28;20463;-78
2021/05/02 07:28:21;;;;;;;2.40;1.00;;;10.90;54.20;;;;;;5024100;28;20388;-79
2021/05/02 07:30:47;;;;;;;1.50;0.70;;;10.90;54.70;;;;;;5022323;28;20030;-78
2021/05/02 07:33:13;;;;;;;3.90;1.00;;;11.00;54.10;;;;;;4999407;28;20021;-78
2021/05/02 07:35:40;;;;;;;2.40;1.13;;;11.00;54.00;;;;;;5008725;28;20034;-78
2021/05/02 07:38:06;;;;;;;4.70;1.10;;;11.10;54.00;;;;;;5020055;28;20030;-78
2021/05/02 07:40:32;;;;;;;1.92;0.70;;;11.20;54.00;;;;;;5003414;28;20038;-78
2021/05/02 07:42:58;;;;;;;9.85;1.98;;;11.30;54.50;;;;;;5008923;28;20030;-79
2021/05/02 07:45:24;;;;;;;2.17;0.73;;;11.30;53.80;;;;;;5010670;28;20471;-79
2021/05/02 07:47:51;;;;;;;3.92;1.33;;;11.50;53.80;;;;;;5026682;28;20058;-79
2021/05/02 07:50:17;;;;;;;2.55;1.30;;;11.60;53.70;;;;;;5009224;28;20387;-80
2021/05/02 07:52:43;;;;;;;4.32;1.27;;;11.80;53.60;;;;;;5005791;28;20042;-80
2021/05/02 07:55:10;;;;;;;2.10;1.50;;;12.00;53.40;;;;;;5034955;28;20049;-80
2021/05/02 07:57:36;;;;;;;3.28;1.50;;;12.40;53.00;;;;;;4977766;28;20042;-79
2021/05/02 08:00:04;;;;;;;2.90;0.73;;;12.70;52.50;;;;;;5012355;28;20034;-80
2021/05/02 08:02:30;;;;;;;4.40;1.42;;;12.90;52.30;;;;;;5001019;28;20034;-79
2021/05/02 08:04:56;;;;;;;2.97;1.20;;;13.10;52.40;;;;;;5007825;28;20069;-82
2021/05/02 08:07:22;;;;;;;2.28;0.85;;;13.10;52.30;;;;;;5008116;28;20472;-81
2021/05/02 08:09:48;;;;;;;2.22;1.50;;;13.20;52.40;;;;;;4999278;28;20030;-81
2021/05/02 08:12:14;;;;;;;1.25;0.43;;;13.00;52.40;;;;;;5001664;28;20471;-79
2021/05/02 08:14:41;;;;;;;1.77;0.98;;;13.00;52.70;;;;;;5004908;28;20034;-81
2021/05/02 08:17:08;;;;;;;6.38;1.58;;;12.90;52.90;;;;;;5007117;28;20030;-80
2021/05/02 08:19:34;;;;;;;2.75;0.65;;;12.90;53.10;;;;;;5006473;28;20036;-80
2021/05/02 08:22:02;;;;;;;4.45;1.23;;;13.00;53.00;;;;;;5004514;28;20573;-80
2021/05/02 08:24:29;;;;;;;2.20;1.00;;;13.30;52.60;;;;;;5002147;28;20030;-80
2021/05/02 08:26:56;;;;;;;3.28;1.02;;;13.80;52.80;;;;;;5018972;28;20385;-81
2021/05/02 08:29:22;;;;;;;2.28;1.05;;;14.10;52.20;;;;;;5009221;28;20033;-79
2021/05/02 08:31:48;;;;;;;2.53;1.45;;;14.30;51.40;;;;;;4998129;28;20106;-79
2021/05/02 08:34:14;;;;;;;3.08;1.23;;;14.50;51.30;;;;;;5004296;28;20592;-80
2021/05/02 08:36:40;;;;;;;3.83;1.40;;;14.80;51.20;;;;;;5024885;28;20037;-80
2021/05/02 08:39:06;;;;;;;1.42;0.50;;;15.10;50.80;;;;;;5006851;28;20034;-80
2021/05/02 08:41:32;;;;;;;13.30;0.90;;;15.60;50.40;;;;;;5032148;28;20042;-80
2021/05/02 08:43:58;;;;;;;4.22;1.67;;;16.00;49.90;;;;;;5003631;28;20026;-80
2021/05/02 08:46:25;;;;;;;4.28;1.38;;;16.30;49.40;;;;;;5004628;28;20041;-82
2021/05/02 08:48:51;;;;;;;3.80;1.50;;;16.60;49.40;;;;;;5017534;28;20390;-80
2021/05/02 08:51:17;;;;;;;3.38;0.93;;;16.80;49.20;;;;;;5008324;28;20030;-79
2021/05/02 08:53:43;;;;;;;3.85;1.02;;;16.90;48.90;;;;;;5025327;28;20054;-79
2021/05/02 08:56:09;;;;;;;2.55;1.10;;;17.10;48.90;;;;;;5036193;28;20048;-80
2021/05/02 08:58:35;;;;;;;2.10;0.88;;;17.20;48.80;;;;;;5012947;28;20037;-79
2021/05/02 09:01:02;;;;;;;2.40;0.82;;;17.10;48.90;;;;;;5002089;28;20229;-80
2021/05/02 09:03:41;;;;;;;4.10;1.55;;;17.20;48.90;;;;;;5031473;28;20030;-79
2021/05/02 09:06:20;;;;;;;3.97;1.55;;;17.20;48.90;;;;;;5018896;28;20049;-80
2021/05/02 09:08:47;;;;;;;4.90;1.30;;;17.40;48.70;;;;;;5005654;28;20026;-81
2021/05/02 09:11:14;;;;;;;2.00;0.88;;;17.50;48.50;;;;;;4993781;28;20045;-81
2021/05/02 09:13:51;;;;;;;2.75;0.93;;;17.70;48.50;;;;;;5013927;28;20018;-82
2021/05/02 09:16:17;;;;;;;2.97;0.95;;;17.90;48.20;;;;;;4999285;28;20046;-82
2021/05/02 09:18:48;;;;;;;2.75;0.88;;;18.20;47.90;;;;;;5004323;28;20034;-81
2021/05/02 09:21:37;;;;;;;1.77;0.43;;;18.50;47.60;;;;;;5008185;28;20034;-82
2021/05/02 09:24:07;;;;;;;2.65;1.30;;;18.70;47.00;;;;;;4994635;28;20053;-82
2021/05/02 09:26:35;;;;;;;1.98;0.65;;;18.60;46.80;;;;;;5000897;28;20360;-83
2021/05/02 09:29:05;;;;;;;4.43;1.08;;;18.50;46.90;;;;;;5004955;28;20038;-84
2021/05/02 09:31:35;;;;;;;2.15;0.73;;;18.40;47.00;;;;;;4990358;28;20034;-84
2021/05/02 09:34:09;;;;;;;4.03;1.57;;;18.30;47.00;;;;;;5003728;28;20026;-85
2021/05/02 09:36:57;;;;;;;3.10;1.30;;;18.30;47.00;;;;;;5009990;28;20034;-86
2021/05/02 09:39:53;;;;;;;5.28;1.70;;;18.50;46.90;;;;;;4997697;28;20049;-86
2021/05/02 09:42:35;;;;;;;1.67;0.50;;;18.80;46.60;;;;;;4995122;28;20025;-86
2021/05/02 09:45:02;;;;;;;2.75;1.00;;;19.20;46.00;;;;;;5022689;28;20041;-85
2021/05/02 09:47:35;;;;;;;1.70;0.85;;;19.30;46.40;;;;;;5006020;28;20510;-85
2021/05/02 09:50:07;;;;;;;1.48;0.45;;;19.20;45.80;;;;;;5006044;28;20037;-86
2021/05/02 09:52:57;;;;;;;1.75;1.08;;;19.10;45.80;;;;;;5007813;28;20387;-81
2021/05/02 09:55:23;;;;;;;6.45;0.60;;;18.50;46.10;;;;;;5002996;28;20046;-83
2021/05/02 09:57:51;;;;;;;1.65;0.80;;;18.10;46.60;;;;;;5005732;28;20022;-80
2021/05/02 10:00:30;;;;;;;2.45;1.02;;;17.60;46.80;;;;;;5023365;28;20391;-79
2021/05/02 10:02:57;;;;;;;3.40;0.65;;;17.20;47.40;;;;;;5005927;28;20454;-79
2021/05/02 10:05:23;;;;;;;4.53;0.70;;;16.90;47.60;;;;;;4999752;28;20038;-80
2021/05/02 10:07:50;;;;;;;0.90;0.40;;;16.60;48.60;;;;;;4991288;28;20026;-79
2021/05/02 10:10:16;;;;;;;3.30;0.93;;;16.40;48.10;;;;;;5008219;28;20033;-80
2021/05/02 10:12:53;;;;;;;3.00;1.08;;;16.20;48.20;;;;;;5007566;28;20029;-79
2021/05/02 10:15:20;;;;;;;2.42;0.90;;;16.00;48.30;;;;;;5003046;28;20186;-80
2021/05/02 10:17:49;;;;;;;2.33;0.93;;;15.90;48.50;;;;;;4996526;28;20049;-79
2021/05/02 10:20:15;;;;;;;1.08;0.63;;;15.70;48.60;;;;;;5010943;28;20034;-79
2021/05/02 10:22:41;;;;;;;0.95;0.45;;;15.60;48.70;;;;;;5008431;28;20037;-79
2021/05/02 10:25:10;;;;;;;2.95;1.25;;;15.50;48.80;;;;;;5008164;28;20042;-80
2021/05/02 10:27:44;;;;;;;2.17;1.27;;;15.40;48.80;;;;;;5009411;28;20470;-80
2021/05/02 10:30:10;;;;;;;2.03;1.13;;;15.30;48.90;;;;;;4974532;28;20053;-79
2021/05/02 10:32:36;;;;;;;5.22;1.15;;;15.20;48.80;;;;;;5006064;28;20059;-80
2021/05/02 10:35:09;;;;;;;2.00;0.60;;;15.20;48.90;;;;;;5010191;28;20049;-81
2021/05/02 10:37:37;;;;;;;1.80;0.93;;;15.20;48.80;;;;;;5011189;28;20045;-78
2021/05/02 10:40:18;;;;;;;1.63;0.65;;;15.20;48.80;;;;;;5009533;28;20040;-78
2021/05/02 10:42:52;;;;;;;2.20;0.60;;;15.20;48.60;;;;;;5007603;28;20053;-81
2021/05/02 10:45:30;;;;;;;2.08;0.63;;;15.20;48.50;;;;;;5013958;28;20040;-81
2021/05/02 10:48:23;;;;;;;1.38;0.47;;;15.30;48.40;;;;;;5013852;28;20029;-81
2021/05/02 10:50:50;;;;;;;1.73;0.70;;;15.30;48.20;;;;;;4993089;28;20042;-81
2021/05/02 10:53:20;;;;;;;3.63;0.88;;;15.30;48.00;;;;;;4989320;28;20491;-80
2021/05/02 10:56:01;;;;;;;2.15;0.90;;;15.30;47.90;;;;;;5008421;28;20057;-78
2021/05/02 10:58:30;;;;;;;1.55;0.63;;;15.40;48.10;;;;;;5008426;28;20038;-81
2021/05/02 11:01:03;;;;;;;1.40;0.65;;;15.40;47.50;;;;;;4984850;28;20194;-80
2021/05/02 11:03:41;;;;;;;2.85;0.77;;;15.50;47.40;;;;;;4973334;28;20030;-81
2021/05/02 11:06:11;;;;;;;1.35;0.40;;;15.60;47.30;;;;;;4972160;28;20031;-78
2021/05/02 11:08:57;;;;;;;5.68;1.17;;;15.70;47.10;;;;;;4971239;28;20041;-78
2021/05/02 11:11:29;;;;;;;1.63;0.65;;;15.70;46.90;;;;;;4973777;28;20042;-77
2021/05/02 11:14:10;;;;;;;2.03;0.45;;;15.90;46.80;;;;;;4973222;28;20049;-78
2021/05/02 11:16:40;;;;;;;1.23;0.50;;;16.00;46.50;;;;;;4973446;28;20051;-78
2021/05/02 11:19:11;;;;;;;1.50;0.52;;;16.10;46.30;;;;;;4988966;28;20023;-78
2021/05/02 11:22:04;;;;;;;1.23;0.68;;;16.30;46.10;;;;;;4988672;28;20039;-79
2021/05/02 11:24:39;;;;;;;1.85;0.55;;;16.70;45.70;;;;;;4970418;28;20146;-78
2021/05/02 11:27:24;;;;;;;1.67;0.57;;;17.10;45.30;;;;;;4995880;28;20403;-77
2021/05/02 11:30:07;;;;;;;2.28;0.73;;;17.40;44.80;;;;;;4991554;28;20025;-78
2021/05/02 11:32:40;;;;;;;1.73;0.50;;;17.60;44.30;;;;;;4979088;28;20050;-78
2021/05/02 11:35:08;;;;;;;1.27;0.40;;;17.90;44.10;;;;;;4994857;28;20026;-79
2021/05/02 11:37:54;;;;;;;0.43;0.13;;;18.00;43.60;;;;;;5014039;28;20036;-78
2021/05/02 11:40:24;;;;;;;1.63;0.50;;;18.20;43.40;;;;;;4982156;28;20468;-78
2021/05/02 11:43:00;;;;;;;5.72;0.60;;;18.40;43.20;;;;;;4983325;28;20502;-78
2021/05/02 11:45:30;;;;;;;1.05;0.55;;;18.60;42.90;;;;;;4993947;28;20042;-79
2021/05/02 11:47:56;;;;;;;0.30;0.15;;;18.90;42.60;;;;;;4991963;28;20026;-78
2021/05/02 11:50:22;;;;;;;1.30;0.30;;;19.00;42.30;;;;;;5021571;28;20045;-78
2021/05/02 11:52:51;;;;;;;0.77;0.20;;;19.10;42.20;;;;;;4991758;28;20495;-78
2021/05/02 11:55:30;;;;;;;1.50;0.20;;;19.10;41.90;;;;;;4991351;28;20600;-78
2021/05/02 11:57:57;;;;;;;2.60;0.38;;;19.10;41.50;;;;;;4991189;28;20050;-78
2021/05/02 12:00:39;;;;;;;1.60;0.32;;;19.00;41.50;;;;;;4975069;28;20034;-77
2021/05/02 12:03:06;;;;;;;1.23;0.50;;;19.00;41.40;;;;;;4992003;28;20034;-77
2021/05/02 12:05:32;;;;;;;2.25;0.55;;;19.00;41.30;;;;;;5004911;28;20392;-78
2021/05/02 12:08:11;;;;;;;0.60;0.20;;;19.10;41.20;;;;;;4990643;28;20046;-77
2021/05/02 12:10:38;;;;;;;2.13;0.52;;;19.10;40.70;;;;;;4990675;28;20041;-77
2021/05/02 12:13:05;;;;;;;1.83;0.68;;;19.10;40.50;;;;;;4976522;28;20039;-77
2021/05/02 12:15:33;;;;;;;1.17;0.28;;;19.10;40.40;;;;;;4990906;28;20400;-78
2021/05/02 12:17:59;;;;;;;0.35;0.10;;;19.10;40.30;;;;;;4975486;28;20030;-78
2021/05/02 12:20:26;;;;;;;0.17;0.03;;;19.00;40.20;;;;;;4988152;28;20035;-78
2021/05/02 12:22:52;;;;;;;0.60;0.28;;;18.90;40.40;;;;;;4990795;28;20034;-78
2021/05/02 12:25:18;;;;;;;1.35;0.55;;;18.80;40.50;;;;;;4990289;28;20408;-77
2021/05/02 12:27:57;;;;;;;0.75;0.22;;;18.70;40.70;;;;;;4991088;28;20033;-78
2021/05/02 12:30:24;;;;;;;0.85;0.38;;;18.70;40.70;;;;;;4992126;28;20035;-78
2021/05/02 12:32:50;;;;;;;1.65;0.40;;;18.60;40.60;;;;;;4991187;28;20101;-78
2021/05/02 12:35:17;;;;;;;3.30;0.35;;;18.40;40.40;;;;;;4993792;28;20046;-78
2021/05/02 12:37:43;;;;;;;0.73;0.20;;;18.30;40.50;;;;;;4990861;28;20026;-78
2021/05/02 12:40:09;;;;;;;1.00;0.20;;;18.10;40.50;;;;;;4969557;28;20039;-78
2021/05/02 12:42:37;;;;;;;1.05;0.52;;;18.00;40.60;;;;;;4993475;28;20329;-78
2021/05/02 12:45:07;;;;;;;3.40;0.20;;;18.10;40.40;;;;;;4949399;28;20065;-77
2021/05/02 12:47:44;;;;;;;4.40;0.38;;;18.20;40.10;;;;;;4989985;28;20034;-78
2021/05/02 12:50:11;;;;;;;0.65;0.25;;;18.30;40.00;;;;;;4972919;28;20038;-78
2021/05/02 12:52:41;;;;;;;0.40;0.20;;;18.30;39.70;;;;;;4994357;28;20043;-77
2021/05/02 12:55:26;;;;;;;0.55;0.25;;;18.30;39.60;;;;;;4986291;28;20018;-78
2021/05/02 12:58:03;;;;;;;0.00;0.00;;;18.30;39.60;;;;;;4989736;28;20400;-78